Flight Track Log - Related Links

Times and Time Zones

All times are in EDT time to prevent confusion due to time zone crossing. See the UAL4553 flight status page for this flight to view local times or setup timezone preferences in your user account.

Time Position Orientation Groundspeed Altitude Reporting Facility
EDT Latitude Longitude Course Direction KTS MPH feet Rate Location/Type
Sun 07:47:46 AM 39.2833 -94.7333 84° East 145 167 1,700  Level Kansas City TRACON
Sun 07:48:52 AM 39.2333 -94.7167 166° South 221 254 3,800 1,977 Climbing Kansas City TRACON
Sun 07:49:14 AM 39.2122 -94.7083 163° South 222 255 4,600 2,233 Climbing Kansas City Center
Sun 07:50:18 AM 39.2008 -94.6192 99° East 248 285 7,000 2,115 Climbing Kansas City Center
Sun 07:51:00 AM 39.3543 -94.1753 80° East  Level FlightAware Approximate
Sun 07:51:16 AM 39.2269 -94.5269 70° East 286 329 8,900  Level Kansas City Center
Sun 07:52:00 AM 39.3729 -94.0272 82° East  Level FlightAware Approximate
Sun 07:52:19 AM 39.2539 -94.4289 70° East 301 346 11,000  Level Kansas City Center
Sun 07:53:00 AM 39.3880 -93.8729 84° East  Level FlightAware Approximate
Sun 07:53:19 AM 39.2889 -94.3031 70° East 340 391 12,100  Level Kansas City Center
Sun 07:54:17 AM 39.3222 -94.1808 71° East 375 432 13,200 1,261 Climbing Kansas City Center
Sun 07:55:18 AM 39.3578 -94.0567 70° East 386 444 14,600 1,500 Climbing Kansas City Center
Sun 07:56:21 AM 39.3928 -93.9072 73° East 391 450 16,300 1,512 Climbing Kansas City Center
Sun 07:57:21 AM 39.4078 -93.7739 82° East 392 451 17,700 1,426 Climbing Kansas City Center
Sun 07:58:23 AM 39.4258 -93.6339 80° East 395 455 19,200 1,488 Climbing Kansas City Center
Sun 07:59:22 AM 39.4450 -93.4944 80° East 398 458 20,700 1,475 Climbing Kansas City Center
Sun 08:00:21 AM 39.4606 -93.3558 82° East 395 455 22,100 1,426 Climbing Kansas City Center
Sun 08:01:24 AM 39.4758 -93.2156 82° East 397 457 23,600 1,438 Climbing Kansas City Center
Sun 08:02:22 AM 39.4844 -93.0742 85° East 398 458 25,000 1,426 Climbing Kansas City Center
Sun 08:03:26 AM 39.4958 -92.9297 84° East 405 466 26,500 1,475 Climbing Kansas City Center
Sun 08:04:24 AM 39.5064 -92.7875 84° East 404 465 28,000 1,450 Climbing Kansas City Center
Sun 08:05:26 AM 39.5167 -92.6458 85° East 403 464 29,400 1,438 Climbing Kansas City Center
Sun 08:06:25 AM 39.5289 -92.4758 85° East 401 461 30,900 1,339 Climbing Kansas City Center
Sun 08:07:27 AM 39.5408 -92.3311 84° East 405 466 32,100 1,122 Climbing Kansas City Center
Sun 08:08:28 AM 39.5506 -92.1844 85° East 411 473 33,200 1,122 Climbing Kansas City Center
Sun 08:09:30 AM 39.5611 -92.0367 85° East 415 478 34,400 885 Climbing Kansas City Center
Sun 08:10:30 AM 39.5714 -91.8878 85° East 418 481 35,000 298 Climbing Kansas City Center
Sun 08:11:31 AM 39.5803 -91.7322 86° East 429 494 35,000  Level Kansas City Center
Sun 08:12:31 AM 39.5906 -91.5675 85° East 452 520 35,000  Level Kansas City Center
Sun 08:13:30 AM 39.6036 -91.3917 84° East 478 550 35,000  Level Kansas City Center
Sun 08:14:32 AM 39.6150 -91.1919 86° East 496 571 35,000  Level Kansas City Center
Sun 08:15:31 AM 39.6269 -91.0081 85° East 505 581 35,000  Level Kansas City Center
Sun 08:16:32 AM 39.6394 -90.8264 85° East 507 583 35,000  Level Kansas City Center
Sun 08:17:35 AM 39.6489 -90.6444 86° East 506 582 35,000  Level Kansas City Center
Sun 08:18:36 AM 39.6594 -90.4597 86° East 508 585 35,000  Level Kansas City Center
Sun 08:19:34 AM 39.6697 -90.2733 86° East 514 592 35,000  Level Kansas City Center
Sun 08:20:38 AM 39.6794 -90.0875 86° East 515 593 35,000 339 Level Kansas City Center
Sun 08:21:38 AM 39.6889 -89.9039 86° East 512 589 35,700 893 Climbing Kansas City Center
Sun 08:22:39 AM 39.6975 -89.7286 86° East 498 573 36,800 645 Climbing Kansas City Center
Sun 08:23:39 AM 39.7056 -89.5567 86° East 483 556 37,000 99 Climbing Kansas City Center
Sun 08:24:40 AM 39.7164 -89.3542 86° East 487 560 37,000  Level Kansas City Center
Sun 08:25:39 AM 39.7236 -89.1739 87° East 496 571 37,000  Level Kansas City Center
Sun 08:26:42 AM 39.7317 -88.9933 87° East 501 577 37,000  Level Kansas City Center
Sun 08:27:40 AM 39.7400 -88.8094 87° East 508 585 37,000  Level Kansas City Center
Sun 08:28:44 AM 39.7472 -88.6258 87° East 510 587 37,000  Level Kansas City Center
Sun 08:29:43 AM 39.7542 -88.4431 87° East 508 585 37,000  Level Kansas City Center
Sun 08:30:43 AM 39.7694 -88.2603 84° East 510 587 37,000  Level Kansas City Center
Sun 08:31:44 AM 39.8042 -88.0900 75° East 504 580 37,000  Level Kansas City Center
Sun 08:32:03 AM 39.8197 -88.0119 75° East 512 589 37,000  Level Indianapolis Center
Sun 08:32:28 AM 39.8344 -87.9419 75° East 510 587 37,000  Level Indianapolis Center
Sun 08:33:29 AM 39.8658 -87.7636 77° East 509 586 37,000  Level Indianapolis Center
Sun 08:34:30 AM 39.8886 -87.5794 81° East 514 592 37,000  Level Indianapolis Center
Sun 08:35:31 AM 39.9131 -87.3978 80° East 512 589 37,000  Level Indianapolis Center
Sun 08:36:33 AM 39.9358 -87.2156 81° East 511 588 37,000  Level Indianapolis Center
Sun 08:37:34 AM 39.9592 -87.0319 81° East 512 589 37,000  Level Indianapolis Center
Sun 08:38:35 AM 39.9808 -86.8478 81° East 513 590 37,000  Level Indianapolis Center
Sun 08:39:36 AM 40.0044 -86.6636 80° East 513 590 37,000  Level Indianapolis Center
Sun 08:40:38 AM 40.0261 -86.4778 81° East 514 592 37,000  Level Indianapolis Center
Sun 08:41:39 AM 40.0481 -86.2922 81° East 513 590 37,000  Level Indianapolis Center
Sun 08:42:40 AM 40.0747 -86.0672 81° East 515 593 37,000  Level Indianapolis Center
Sun 08:43:42 AM 40.0953 -85.8817 82° East 514 592 37,000  Level Indianapolis Center
Sun 08:44:43 AM 40.1161 -85.6944 82° East 518 596 37,000  Level Indianapolis Center
Sun 08:45:45 AM 40.1364 -85.5067 82° East 521 600 37,000  Level Indianapolis Center
Sun 08:46:46 AM 40.1578 -85.3197 81° East 520 598 37,000  Level Indianapolis Center
Sun 08:47:48 AM 40.1794 -85.1314 81° East 523 602 37,000  Level Indianapolis Center
Sun 08:48:49 AM 40.2403 -84.9608 65° Northeast 516 594 37,000  Level Indianapolis Center
Sun 08:49:50 AM 40.3147 -84.7689 63° Northeast 520 598 37,000  Level Indianapolis Center
Sun 08:50:52 AM 40.3789 -84.5978 64° Northeast 518 596 37,000  Level Indianapolis Center
Sun 08:51:53 AM 40.4439 -84.4269 63° Northeast 519 597 37,000  Level Indianapolis Center
Sun 08:52:54 AM 40.5092 -84.2550 63° Northeast 519 597 37,000  Level Indianapolis Center
Sun 08:53:56 AM 40.5731 -84.0822 64° Northeast 520 598 37,000  Level Indianapolis Center
Sun 08:54:57 AM 40.6375 -83.9094 64° Northeast 520 598 37,000  Level Indianapolis Center
Sun 08:55:59 AM 40.7014 -83.7364 64° Northeast 519 597 37,000  Level Indianapolis Center
Sun 08:57:00 AM 40.7650 -83.5639 64° Northeast 517 595 37,000  Level Indianapolis Center
Sun 08:58:02 AM 40.8111 -83.3711 72° East 527 606 37,000  Level Indianapolis Center
Sun 08:59:03 AM 40.8408 -83.1803 78° East 527 606 37,000  Level Indianapolis Center
Sun 09:00:04 AM 40.8700 -82.9897 78° East 527 606 37,000  Level Indianapolis Center
Sun 09:00:43 AM 40.8867 -82.8572 81° East 528 608 37,000  Level Cleveland Center
Sun 09:01:43 AM 40.9175 -82.6658 78° East 523 602 37,000  Level Cleveland Center
Sun 09:02:43 AM 40.9436 -82.4772 80° East 523 602 37,000  Level Cleveland Center
Sun 09:03:43 AM 40.9736 -82.2883 78° East 530 610 37,000  Level Cleveland Center
Sun 09:04:43 AM 40.9994 -82.0964 80° East 530 610 37,000  Level Cleveland Center
Sun 09:05:43 AM 41.0267 -81.9069 79° East 525 604 37,000  Level Cleveland Center
Sun 09:06:44 AM 41.0517 -81.7147 80° East 525 604 37,000  Level Cleveland Center
Sun 09:07:43 AM 41.0783 -81.5281 79° East 525 604 37,000  Level Cleveland Center
Sun 09:08:43 AM 41.1047 -81.3408 79° East 525 604 37,000  Level Cleveland Center
Sun 09:09:43 AM 41.1308 -81.1567 79° East 520 598 37,000  Level Cleveland Center
Sun 09:10:43 AM 41.1567 -80.9692 80° East 520 598 37,000  Level Cleveland Center
Sun 09:11:43 AM 41.1803 -80.7817 80° East 520 598 37,000  Level Cleveland Center
Sun 09:12:43 AM 41.2053 -80.5886 80° East 520 598 37,000  Level Cleveland Center
Sun 09:13:43 AM 41.2281 -80.4203 80° East 525 604 37,000  Level Cleveland Center
Sun 09:14:43 AM 41.2569 -80.2103 80° East 525 604 37,000  Level Cleveland Center
Sun 09:15:43 AM 41.2792 -80.0167 81° East 525 604 37,000  Level Cleveland Center
Sun 09:16:43 AM 41.2989 -79.8453 81° East 525 604 37,000  Level Cleveland Center
Sun 09:17:43 AM 41.3264 -79.6319 80° East 525 604 37,000  Level Cleveland Center
Sun 09:18:43 AM 41.3497 -79.4408 81° East 525 604 37,000  Level Cleveland Center
Sun 09:19:43 AM 41.3689 -79.2717 81° East 518 596 37,000  Level Cleveland Center
Sun 09:20:43 AM 41.3914 -79.0803 81° East 518 596 37,000  Level Cleveland Center
Sun 09:21:44 AM 41.4139 -78.8858 81° East 525 604 37,000  Level Cleveland Center
Sun 09:22:43 AM 41.4336 -78.6942 82° East 525 604 37,000  Level Cleveland Center
Sun 09:23:43 AM 41.4344 -78.5003 90° East 520 598 37,000 -557 Level Cleveland Center
Sun 09:25:03 AM 41.4203 -78.2331 94° East 517 595 35,700 -1,391 Descending New York Center
Sun 09:26:01 AM 41.4114 -78.0411 93° East 522 601 33,800 -1,983 Descending New York Center
Sun 09:27:01 AM 41.4003 -77.8433 94° East 528 608 31,800 -1,388 Descending New York Center
Sun 09:28:02 AM 41.3908 -77.6514 94° East 528 608 31,000 -397 Descending New York Center
Sun 09:29:02 AM 41.3808 -77.4625 94° East 523 602 31,000  Level New York Center
Sun 09:30:02 AM 41.3681 -77.2758 95° East 517 595 31,000  Level New York Center
Sun 09:31:03 AM 41.3556 -77.0839 95° East 517 595 31,000 -504 Level New York Center
Sun 09:32:01 AM 41.3447 -76.8950 94° East 517 595 30,000 -1,780 Descending New York Center
Sun 09:33:01 AM 41.3169 -76.7044 101° East 517 595 27,500 -2,430 Descending New York Center
Sun 09:34:02 AM 41.2694 -76.5264 109° East 517 595 25,100 -2,430 Descending New York Center
Sun 09:35:02 AM 41.2194 -76.3511 111° Southeast 510 587 22,600 -2,450 Descending New York Center
Sun 09:36:02 AM 41.1753 -76.1819 109° East 496 571 20,200 -2,479 Descending New York Center
Sun 09:37:03 AM 41.1342 -76.0272 109° East 464 534 17,600 -2,370 Descending New York Center
Sun 09:38:01 AM 41.0950 -75.8756 109° East 445 512 15,500 -1,983 Descending New York Center
Sun 09:39:01 AM 41.0569 -75.7406 110° East 434 499 13,700 -1,289 Descending New York Center
Sun 09:40:02 AM 41.0136 -75.5806 110° East 426 490 12,900 -397 Descending New York Center
Sun 09:41:02 AM 40.9717 -75.4347 111° Southeast 420 483 12,900 -347 Level New York Center
Sun 09:42:03 AM 40.9353 -75.2978 109° East 415 478 12,200 -1,140 Descending New York Center
Sun 09:43:03 AM 40.9039 -75.1911 111° Southeast 373 429 10,600 -1,563 Descending New York Center
Sun 09:44:02 AM 40.8728 -75.0767 110° East 340 391 9,100 -1,537 Descending New York Center
Sun 09:45:04 AM 40.8394 -74.9622 111° Southeast 317 365 7,500 -1,059 Descending New York Center
Sun 09:46:01 AM 40.8242 -74.8597 101° East 300 345 7,000 -256 Descending New York Center
Sun 09:47:01 AM 40.8678 -74.7444 63° Northeast 293 337 7,000 -397 Level New York Center
Sun 09:48:02 AM 40.8878 -74.6386 76° East 293 337 6,200 -638 Descending New York Center
Sun 09:48:35 AM 40.9000 -74.5833 74° East 299 344 6,000 -581 Descending New York TRACON
Sun 09:49:35 AM 40.9167 -74.4667 79° East 290 334 5,300 -526 Descending New York TRACON
Sun 09:50:29 AM 40.9333 -74.3833 75° East 283 326 5,000 -263 Descending New York TRACON
Sun 09:51:29 AM 40.9500 -74.2833 78° East 292 336 4,800 -500 Descending New York TRACON
Sun 09:52:29 AM 40.9167 -74.1833 114° Southeast 276 318 4,000 -650 Descending New York TRACON
Sun 09:53:29 AM 40.8833 -74.1000 118° Southeast 255 293 3,500 -600 Descending New York TRACON
Sun 09:54:29 AM 40.8167 -74.0833 169° South 228 262 2,800 -700 Descending New York TRACON

Login

Don't have an account? Register now (free) for customized features, flight alerts, and more!